sensor_id;sensor_type;location;lat;lon;timestamp;P1;durP1;ratioP1;P2;durP2;ratioP2
57605;SDS011;43430;48.204;11.556;2023-03-01T00:02:10;19.77;;;9.95;;
57605;SDS011;43430;48.204;11.556;2023-03-01T00:05:06;23.95;;;11.10;;
57605;SDS011;43430;48.204;11.556;2023-03-01T00:07:47;22.58;;;10.90;;
57605;SDS011;43430;48.204;11.556;2023-03-01T00:10:41;19.70;;;9.57;;
57605;SDS011;43430;48.204;11.556;2023-03-01T00:13:25;22.05;;;11.40;;
57605;SDS011;43430;48.204;11.556;2023-03-01T00:16:37;24.33;;;10.60;;
57605;SDS011;43430;48.204;11.556;2023-03-01T00:19:22;19.15;;;9.63;;
57605;SDS011;43430;48.204;11.556;2023-03-01T00:22:08;24.73;;;9.77;;
57605;SDS011;43430;48.204;11.556;2023-03-01T00:27:29;19.95;;;10.38;;
57605;SDS011;43430;48.204;11.556;2023-03-01T00:32:56;23.13;;;10.70;;
57605;SDS011;43430;48.204;11.556;2023-03-01T00:35:24;20.48;;;10.45;;
57605;SDS011;43430;48.204;11.556;2023-03-01T00:38:01;22.88;;;10.77;;
57605;SDS011;43430;48.204;11.556;2023-03-01T00:40:36;21.77;;;10.15;;
57605;SDS011;43430;48.204;11.556;2023-03-01T00:46:25;21.38;;;9.88;;
57605;SDS011;43430;48.204;11.556;2023-03-01T00:48:59;20.88;;;10.30;;
57605;SDS011;43430;48.204;11.556;2023-03-01T00:51:27;22.02;;;10.15;;
57605;SDS011;43430;48.204;11.556;2023-03-01T00:54:39;18.48;;;10.18;;
57605;SDS011;43430;48.204;11.556;2023-03-01T00:57:32;20.15;;;9.00;;
57605;SDS011;43430;48.204;11.556;2023-03-01T01:00:07;22.88;;;11.07;;
57605;SDS011;43430;48.204;11.556;2023-03-01T01:03:20;20.98;;;10.63;;
57605;SDS011;43430;48.204;11.556;2023-03-01T01:06:03;23.02;;;10.63;;
57605;SDS011;43430;48.204;11.556;2023-03-01T01:08:42;20.38;;;11.05;;
57605;SDS011;43430;48.204;11.556;2023-03-01T01:11:11;20.90;;;10.05;;
57605;SDS011;43430;48.204;11.556;2023-03-01T01:13:46;21.15;;;10.32;;
57605;SDS011;43430;48.204;11.556;2023-03-01T01:16:27;21.85;;;10.57;;
57605;SDS011;43430;48.204;11.556;2023-03-01T01:18:56;22.08;;;9.75;;
57605;SDS011;43430;48.204;11.556;2023-03-01T01:21:25;19.98;;;10.00;;
57605;SDS011;43430;48.204;11.556;2023-03-01T01:24:10;22.10;;;10.43;;
57605;SDS011;43430;48.204;11.556;2023-03-01T01:26:36;22.30;;;10.95;;
57605;SDS011;43430;48.204;11.556;2023-03-01T01:29:17;21.10;;;10.85;;
57605;SDS011;43430;48.204;11.556;2023-03-01T01:31:45;19.77;;;9.18;;
57605;SDS011;43430;48.204;11.556;2023-03-01T01:34:30;22.20;;;9.45;;
57605;SDS011;43430;48.204;11.556;2023-03-01T01:36:58;22.42;;;11.20;;
57605;SDS011;43430;48.204;11.556;2023-03-01T01:39:34;20.17;;;9.57;;
57605;SDS011;43430;48.204;11.556;2023-03-01T01:42:00;20.08;;;10.48;;
57605;SDS011;43430;48.204;11.556;2023-03-01T01:44:35;21.35;;;10.13;;
57605;SDS011;43430;48.204;11.556;2023-03-01T01:47:05;18.08;;;9.48;;
57605;SDS011;43430;48.204;11.556;2023-03-01T01:49:45;25.85;;;10.63;;
57605;SDS011;43430;48.204;11.556;2023-03-01T01:52:34;23.63;;;10.57;;
57605;SDS011;43430;48.204;11.556;2023-03-01T01:55:07;19.02;;;10.65;;
57605;SDS011;43430;48.204;11.556;2023-03-01T02:03:54;17.05;;;9.05;;
57605;SDS011;43430;48.204;11.556;2023-03-01T02:09:41;21.98;;;10.43;;
57605;SDS011;43430;48.204;11.556;2023-03-01T02:12:33;22.25;;;10.02;;
57605;SDS011;43430;48.204;11.556;2023-03-01T02:15:15;22.92;;;10.93;;
57605;SDS011;43430;48.204;11.556;2023-03-01T02:18:21;21.75;;;10.32;;
57605;SDS011;43430;48.204;11.556;2023-03-01T02:24:21;21.98;;;10.38;;
57605;SDS011;43430;48.204;11.556;2023-03-01T02:30:09;21.85;;;9.80;;
57605;SDS011;43430;48.204;11.556;2023-03-01T02:32:39;20.83;;;10.25;;
57605;SDS011;43430;48.204;11.556;2023-03-01T02:35:19;20.90;;;9.82;;
57605;SDS011;43430;48.204;11.556;2023-03-01T02:38:34;21.42;;;9.98;;
57605;SDS011;43430;48.204;11.556;2023-03-01T02:44:15;21.40;;;10.05;;
57605;SDS011;43430;48.204;11.556;2023-03-01T02:46:45;20.80;;;10.43;;
57605;SDS011;43430;48.204;11.556;2023-03-01T02:49:36;20.63;;;10.90;;
57605;SDS011;43430;48.204;11.556;2023-03-01T02:52:23;21.55;;;10.65;;
57605;SDS011;43430;48.204;11.556;2023-03-01T02:55:34;20.05;;;9.75;;
57605;SDS011;43430;48.204;11.556;2023-03-01T02:58:00;19.90;;;9.35;;
57605;SDS011;43430;48.204;11.556;2023-03-01T03:00:34;20.40;;;10.70;;
57605;SDS011;43430;48.204;11.556;2023-03-01T03:03:08;20.20;;;10.45;;
57605;SDS011;43430;48.204;11.556;2023-03-01T03:05:34;24.38;;;10.98;;
57605;SDS011;43430;48.204;11.556;2023-03-01T03:08:00;25.00;;;10.93;;
57605;SDS011;43430;48.204;11.556;2023-03-01T03:10:28;21.58;;;10.57;;
57605;SDS011;43430;48.204;11.556;2023-03-01T03:12:59;22.15;;;11.02;;
57605;SDS011;43430;48.204;11.556;2023-03-01T03:15:35;23.42;;;11.88;;
57605;SDS011;43430;48.204;11.556;2023-03-01T03:18:14;20.98;;;10.30;;
57605;SDS011;43430;48.204;11.556;2023-03-01T03:20:44;28.42;;;11.45;;
57605;SDS011;43430;48.204;11.556;2023-03-01T03:23:10;22.75;;;11.00;;
57605;SDS011;43430;48.204;11.556;2023-03-01T03:25:50;20.83;;;10.27;;
57605;SDS011;43430;48.204;11.556;2023-03-01T03:28:19;22.85;;;10.35;;
57605;SDS011;43430;48.204;11.556;2023-03-01T03:30:49;19.77;;;11.02;;
57605;SDS011;43430;48.204;11.556;2023-03-01T03:33:21;22.25;;;11.40;;
57605;SDS011;43430;48.204;11.556;2023-03-01T03:35:48;25.15;;;11.57;;
57605;SDS011;43430;48.204;11.556;2023-03-01T03:38:42;23.48;;;11.40;;
57605;SDS011;43430;48.204;11.556;2023-03-01T03:41:12;22.10;;;11.00;;
57605;SDS011;43430;48.204;11.556;2023-03-01T03:43:38;23.67;;;10.43;;
57605;SDS011;43430;48.204;11.556;2023-03-01T03:46:05;25.08;;;11.38;;
57605;SDS011;43430;48.204;11.556;2023-03-01T03:48:41;25.10;;;11.32;;
57605;SDS011;43430;48.204;11.556;2023-03-01T03:51:15;22.45;;;11.32;;
57605;SDS011;43430;48.204;11.556;2023-03-01T03:54:01;23.67;;;11.40;;
57605;SDS011;43430;48.204;11.556;2023-03-01T03:56:36;21.02;;;11.02;;
57605;SDS011;43430;48.204;11.556;2023-03-01T03:59:19;24.35;;;10.98;;
57605;SDS011;43430;48.204;11.556;2023-03-01T04:01:44;22.80;;;10.77;;
57605;SDS011;43430;48.204;11.556;2023-03-01T04:04:10;25.33;;;11.77;;
57605;SDS011;43430;48.204;11.556;2023-03-01T04:06:47;21.35;;;10.55;;
57605;SDS011;43430;48.204;11.556;2023-03-01T04:09:15;23.10;;;10.77;;
57605;SDS011;43430;48.204;11.556;2023-03-01T04:11:41;26.70;;;11.27;;
57605;SDS011;43430;48.204;11.556;2023-03-01T04:14:30;21.42;;;10.07;;
57605;SDS011;43430;48.204;11.556;2023-03-01T04:17:00;25.02;;;11.07;;
57605;SDS011;43430;48.204;11.556;2023-03-01T04:19:30;20.70;;;10.70;;
57605;SDS011;43430;48.204;11.556;2023-03-01T04:22:01;23.90;;;11.05;;
57605;SDS011;43430;48.204;11.556;2023-03-01T04:24:34;27.98;;;10.82;;
57605;SDS011;43430;48.204;11.556;2023-03-01T04:27:03;20.63;;;10.63;;
57605;SDS011;43430;48.204;11.556;2023-03-01T04:29:37;18.35;;;9.63;;
57605;SDS011;43430;48.204;11.556;2023-03-01T04:32:03;25.08;;;12.02;;
57605;SDS011;43430;48.204;11.556;2023-03-01T04:34:34;29.75;;;11.57;;
57605;SDS011;43430;48.204;11.556;2023-03-01T04:37:05;22.92;;;10.10;;
57605;SDS011;43430;48.204;11.556;2023-03-01T04:39:34;24.35;;;11.32;;
57605;SDS011;43430;48.204;11.556;2023-03-01T04:42:13;23.13;;;11.82;;
57605;SDS011;43430;48.204;11.556;2023-03-01T04:44:43;23.42;;;10.32;;
57605;SDS011;43430;48.204;11.556;2023-03-01T04:47:14;23.70;;;11.05;;
57605;SDS011;43430;48.204;11.556;2023-03-01T04:52:51;20.77;;;9.88;;
57605;SDS011;43430;48.204;11.556;2023-03-01T04:55:19;26.55;;;11.55;;
57605;SDS011;43430;48.204;11.556;2023-03-01T04:57:45;23.27;;;10.32;;
57605;SDS011;43430;48.204;11.556;2023-03-01T05:00:16;20.35;;;11.30;;
57605;SDS011;43430;48.204;11.556;2023-03-01T05:02:56;24.10;;;10.20;;
57605;SDS011;43430;48.204;11.556;2023-03-01T05:06:19;19.98;;;9.98;;
57605;SDS011;43430;48.204;11.556;2023-03-01T05:11:35;23.52;;;10.63;;
57605;SDS011;43430;48.204;11.556;2023-03-01T05:14:04;25.60;;;10.55;;
57605;SDS011;43430;48.204;11.556;2023-03-01T05:16:42;26.92;;;12.35;;
57605;SDS011;43430;48.204;11.556;2023-03-01T05:19:29;23.20;;;10.65;;
57605;SDS011;43430;48.204;11.556;2023-03-01T05:21:56;26.27;;;11.20;;
57605;SDS011;43430;48.204;11.556;2023-03-01T05:24:31;22.95;;;10.18;;
57605;SDS011;43430;48.204;11.556;2023-03-01T05:27:01;25.98;;;10.30;;
57605;SDS011;43430;48.204;11.556;2023-03-01T05:29:30;24.30;;;11.20;;
57605;SDS011;43430;48.204;11.556;2023-03-01T05:32:04;26.20;;;10.88;;
57605;SDS011;43430;48.204;11.556;2023-03-01T05:37:32;25.17;;;11.68;;
57605;SDS011;43430;48.204;11.556;2023-03-01T05:40:00;27.80;;;12.25;;
57605;SDS011;43430;48.204;11.556;2023-03-01T05:42:30;22.17;;;10.98;;
57605;SDS011;43430;48.204;11.556;2023-03-01T05:44:58;24.17;;;12.43;;
57605;SDS011;43430;48.204;11.556;2023-03-01T05:47:29;26.92;;;11.93;;
57605;SDS011;43430;48.204;11.556;2023-03-01T05:49:59;26.35;;;11.10;;
57605;SDS011;43430;48.204;11.556;2023-03-01T05:52:48;25.27;;;10.85;;
57605;SDS011;43430;48.204;11.556;2023-03-01T05:58:35;35.42;;;10.45;;
57605;SDS011;43430;48.204;11.556;2023-03-01T06:08:01;22.60;;;11.52;;
57605;SDS011;43430;48.204;11.556;2023-03-01T06:11:03;24.73;;;11.35;;
57605;SDS011;43430;48.204;11.556;2023-03-01T06:14:33;25.13;;;11.10;;
57605;SDS011;43430;48.204;11.556;2023-03-01T06:17:01;23.60;;;11.07;;
57605;SDS011;43430;48.204;11.556;2023-03-01T06:19:53;23.58;;;11.45;;
57605;SDS011;43430;48.204;11.556;2023-03-01T06:22:28;24.87;;;11.27;;
57605;SDS011;43430;48.204;11.556;2023-03-01T06:25:02;23.90;;;10.77;;
57605;SDS011;43430;48.204;11.556;2023-03-01T06:27:53;21.77;;;9.23;;
57605;SDS011;43430;48.204;11.556;2023-03-01T06:30:29;20.77;;;10.32;;
57605;SDS011;43430;48.204;11.556;2023-03-01T06:33:05;29.58;;;12.35;;
57605;SDS011;43430;48.204;11.556;2023-03-01T06:35:41;26.48;;;10.85;;
57605;SDS011;43430;48.204;11.556;2023-03-01T06:38:17;20.75;;;10.32;;
57605;SDS011;43430;48.204;11.556;2023-03-01T06:41:08;24.52;;;10.63;;
57605;SDS011;43430;48.204;11.556;2023-03-01T06:44:20;21.33;;;10.25;;
57605;SDS011;43430;48.204;11.556;2023-03-01T06:47:31;29.17;;;12.13;;
57605;SDS011;43430;48.204;11.556;2023-03-01T06:50:12;23.77;;;11.50;;
57605;SDS011;43430;48.204;11.556;2023-03-01T06:53:14;26.00;;;11.38;;
57605;SDS011;43430;48.204;11.556;2023-03-01T06:56:00;27.65;;;11.73;;
57605;SDS011;43430;48.204;11.556;2023-03-01T06:58:38;25.80;;;11.68;;
57605;SDS011;43430;48.204;11.556;2023-03-01T07:01:48;29.33;;;11.50;;
57605;SDS011;43430;48.204;11.556;2023-03-01T07:05:11;24.38;;;12.38;;
57605;SDS011;43430;48.204;11.556;2023-03-01T07:08:14;26.48;;;11.07;;
57605;SDS011;43430;48.204;11.556;2023-03-01T07:10:47;24.95;;;11.15;;
57605;SDS011;43430;48.204;11.556;2023-03-01T07:16:39;29.25;;;12.43;;
57605;SDS011;43430;48.204;11.556;2023-03-01T07:19:13;26.70;;;11.00;;
57605;SDS011;43430;48.204;11.556;2023-03-01T07:27:50;25.50;;;11.27;;
57605;SDS011;43430;48.204;11.556;2023-03-01T07:30:17;24.17;;;11.52;;
57605;SDS011;43430;48.204;11.556;2023-03-01T07:32:56;22.17;;;10.57;;
57605;SDS011;43430;48.204;11.556;2023-03-01T07:35:31;24.95;;;11.18;;
57605;SDS011;43430;48.204;11.556;2023-03-01T07:38:07;27.33;;;11.95;;
57605;SDS011;43430;48.204;11.556;2023-03-01T07:40:41;25.98;;;10.85;;
57605;SDS011;43430;48.204;11.556;2023-03-01T07:43:09;27.20;;;11.05;;
57605;SDS011;43430;48.204;11.556;2023-03-01T07:45:35;26.17;;;11.38;;
57605;SDS011;43430;48.204;11.556;2023-03-01T07:48:03;27.70;;;12.93;;
57605;SDS011;43430;48.204;11.556;2023-03-01T07:50:32;26.33;;;11.02;;
57605;SDS011;43430;48.204;11.556;2023-03-01T07:53:01;25.75;;;11.82;;
57605;SDS011;43430;48.204;11.556;2023-03-01T07:55:29;34.17;;;13.10;;
57605;SDS011;43430;48.204;11.556;2023-03-01T07:57:55;22.02;;;11.57;;
57605;SDS011;43430;48.204;11.556;2023-03-01T08:00:20;23.23;;;10.80;;
57605;SDS011;43430;48.204;11.556;2023-03-01T08:02:48;25.80;;;11.60;;
57605;SDS011;43430;48.204;11.556;2023-03-01T08:05:42;29.10;;;12.23;;
57605;SDS011;43430;48.204;11.556;2023-03-01T08:08:10;24.27;;;12.00;;
57605;SDS011;43430;48.204;11.556;2023-03-01T08:10:44;22.90;;;10.60;;
57605;SDS011;43430;48.204;11.556;2023-03-01T08:13:10;25.50;;;11.88;;
57605;SDS011;43430;48.204;11.556;2023-03-01T08:15:38;29.75;;;12.82;;
57605;SDS011;43430;48.204;11.556;2023-03-01T08:18:03;28.30;;;11.25;;
57605;SDS011;43430;48.204;11.556;2023-03-01T08:20:32;28.23;;;12.60;;
57605;SDS011;43430;48.204;11.556;2023-03-01T08:23:03;25.67;;;11.07;;
57605;SDS011;43430;48.204;11.556;2023-03-01T08:25:31;25.25;;;11.95;;
57605;SDS011;43430;48.204;11.556;2023-03-01T08:27:57;27.85;;;12.40;;
57605;SDS011;43430;48.204;11.556;2023-03-01T08:30:22;23.45;;;10.85;;
57605;SDS011;43430;48.204;11.556;2023-03-01T08:32:49;23.58;;;11.05;;
57605;SDS011;43430;48.204;11.556;2023-03-01T08:35:15;28.55;;;12.18;;
57605;SDS011;43430;48.204;11.556;2023-03-01T08:37:44;25.75;;;12.10;;
57605;SDS011;43430;48.204;11.556;2023-03-01T08:40:30;27.80;;;11.20;;
57605;SDS011;43430;48.204;11.556;2023-03-01T08:43:08;24.10;;;11.07;;
57605;SDS011;43430;48.204;11.556;2023-03-01T08:45:36;26.50;;;12.07;;
57605;SDS011;43430;48.204;11.556;2023-03-01T08:48:25;28.25;;;11.73;;
57605;SDS011;43430;48.204;11.556;2023-03-01T08:51:44;21.70;;;10.63;;
57605;SDS011;43430;48.204;11.556;2023-03-01T08:54:22;29.02;;;12.35;;
57605;SDS011;43430;48.204;11.556;2023-03-01T08:57:27;28.60;;;12.63;;
57605;SDS011;43430;48.204;11.556;2023-03-01T09:03:50;27.60;;;12.30;;
57605;SDS011;43430;48.204;11.556;2023-03-01T09:06:15;26.33;;;12.90;;
57605;SDS011;43430;48.204;11.556;2023-03-01T09:08:45;26.67;;;12.13;;
57605;SDS011;43430;48.204;11.556;2023-03-01T09:11:19;27.63;;;12.35;;
57605;SDS011;43430;48.204;11.556;2023-03-01T09:13:47;28.38;;;12.95;;
57605;SDS011;43430;48.204;11.556;2023-03-01T09:16:14;29.98;;;12.13;;
57605;SDS011;43430;48.204;11.556;2023-03-01T09:18:51;26.52;;;11.55;;
57605;SDS011;43430;48.204;11.556;2023-03-01T09:21:24;29.58;;;12.43;;
57605;SDS011;43430;48.204;11.556;2023-03-01T09:24:01;25.92;;;11.90;;
57605;SDS011;43430;48.204;11.556;2023-03-01T09:26:39;29.33;;;12.02;;
57605;SDS011;43430;48.204;11.556;2023-03-01T09:29:07;29.23;;;11.00;;
57605;SDS011;43430;48.204;11.556;2023-03-01T09:32:04;24.63;;;10.80;;
57605;SDS011;43430;48.204;11.556;2023-03-01T09:34:34;31.13;;;12.13;;
57605;SDS011;43430;48.204;11.556;2023-03-01T09:37:27;26.88;;;12.07;;
57605;SDS011;43430;48.204;11.556;2023-03-01T09:39:52;27.25;;;13.02;;
57605;SDS011;43430;48.204;11.556;2023-03-01T09:42:27;24.63;;;10.98;;
57605;SDS011;43430;48.204;11.556;2023-03-01T09:49:09;23.90;;;11.25;;
57605;SDS011;43430;48.204;11.556;2023-03-01T10:11:52;27.98;;;12.43;;
57605;SDS011;43430;48.204;11.556;2023-03-01T10:24:29;27.83;;;12.07;;
57605;SDS011;43430;48.204;11.556;2023-03-01T10:30:43;26.75;;;12.88;;
57605;SDS011;43430;48.204;11.556;2023-03-01T10:36:31;28.38;;;13.70;;
57605;SDS011;43430;48.204;11.556;2023-03-01T10:39:12;33.58;;;14.23;;
57605;SDS011;43430;48.204;11.556;2023-03-01T10:41:53;24.05;;;12.70;;
57605;SDS011;43430;48.204;11.556;2023-03-01T10:47:14;29.40;;;13.55;;
57605;SDS011;43430;48.204;11.556;2023-03-01T10:50:02;33.05;;;13.95;;
57605;SDS011;43430;48.204;11.556;2023-03-01T10:52:40;27.17;;;12.57;;
57605;SDS011;43430;48.204;11.556;2023-03-01T10:58:06;30.42;;;14.07;;
57605;SDS011;43430;48.204;11.556;2023-03-01T11:00:57;32.88;;;14.25;;
57605;SDS011;43430;48.204;11.556;2023-03-01T11:03:34;31.55;;;14.35;;
57605;SDS011;43430;48.204;11.556;2023-03-01T11:06:12;27.42;;;13.60;;
57605;SDS011;43430;48.204;11.556;2023-03-01T11:08:47;28.77;;;13.15;;
57605;SDS011;43430;48.204;11.556;2023-03-01T11:11:17;25.15;;;12.25;;
57605;SDS011;43430;48.204;11.556;2023-03-01T11:16:27;26.88;;;13.32;;
57605;SDS011;43430;48.204;11.556;2023-03-01T11:19:23;24.33;;;12.13;;
57605;SDS011;43430;48.204;11.556;2023-03-01T11:22:03;30.15;;;14.00;;
57605;SDS011;43430;48.204;11.556;2023-03-01T11:24:48;26.83;;;13.85;;
57605;SDS011;43430;48.204;11.556;2023-03-01T11:27:39;24.65;;;12.45;;
57605;SDS011;43430;48.204;11.556;2023-03-01T11:30:38;29.17;;;13.48;;
57605;SDS011;43430;48.204;11.556;2023-03-01T11:38:43;27.90;;;13.82;;
57605;SDS011;43430;48.204;11.556;2023-03-01T11:44:33;28.50;;;12.73;;
57605;SDS011;43430;48.204;11.556;2023-03-01T11:50:05;28.05;;;12.63;;
57605;SDS011;43430;48.204;11.556;2023-03-01T11:59:06;29.88;;;14.10;;
57605;SDS011;43430;48.204;11.556;2023-03-01T12:10:42;29.05;;;13.38;;
57605;SDS011;43430;48.204;11.556;2023-03-01T12:21:28;26.52;;;13.15;;
57605;SDS011;43430;48.204;11.556;2023-03-01T12:24:44;28.10;;;14.23;;
57605;SDS011;43430;48.204;11.556;2023-03-01T12:42:51;27.50;;;13.40;;
57605;SDS011;43430;48.204;11.556;2023-03-01T12:50:10;29.27;;;13.27;;
57605;SDS011;43430;48.204;11.556;2023-03-01T12:52:52;24.23;;;12.00;;
57605;SDS011;43430;48.204;11.556;2023-03-01T12:55:29;27.63;;;13.55;;
57605;SDS011;43430;48.204;11.556;2023-03-01T13:10:30;24.08;;;11.68;;
57605;SDS011;43430;48.204;11.556;2023-03-01T13:13:42;26.95;;;12.82;;
57605;SDS011;43430;48.204;11.556;2023-03-01T13:16:50;29.15;;;11.70;;
57605;SDS011;43430;48.204;11.556;2023-03-01T13:23:00;30.48;;;13.13;;
57605;SDS011;43430;48.204;11.556;2023-03-01T13:26:23;27.10;;;12.43;;
57605;SDS011;43430;48.204;11.556;2023-03-01T13:28:58;28.30;;;14.05;;
57605;SDS011;43430;48.204;11.556;2023-03-01T13:40:57;24.25;;;12.02;;
57605;SDS011;43430;48.204;11.556;2023-03-01T13:43:43;24.42;;;11.88;;
57605;SDS011;43430;48.204;11.556;2023-03-01T13:46:18;23.20;;;11.85;;
57605;SDS011;43430;48.204;11.556;2023-03-01T13:48:57;25.98;;;12.52;;
57605;SDS011;43430;48.204;11.556;2023-03-01T13:51:35;24.58;;;13.07;;
57605;SDS011;43430;48.204;11.556;2023-03-01T13:54:30;27.52;;;12.80;;
57605;SDS011;43430;48.204;11.556;2023-03-01T13:57:34;23.70;;;12.50;;
57605;SDS011;43430;48.204;11.556;2023-03-01T14:00:38;25.95;;;12.38;;
57605;SDS011;43430;48.204;11.556;2023-03-01T14:04:17;24.55;;;12.70;;
57605;SDS011;43430;48.204;11.556;2023-03-01T14:07:08;22.60;;;10.98;;
57605;SDS011;43430;48.204;11.556;2023-03-01T14:09:40;26.30;;;12.38;;
57605;SDS011;43430;48.204;11.556;2023-03-01T14:23:12;23.60;;;11.93;;
57605;SDS011;43430;48.204;11.556;2023-03-01T14:25:54;26.83;;;12.90;;
57605;SDS011;43430;48.204;11.556;2023-03-01T14:28:29;25.00;;;11.63;;
57605;SDS011;43430;48.204;11.556;2023-03-01T14:34:27;23.63;;;12.13;;
57605;SDS011;43430;48.204;11.556;2023-03-01T14:37:14;21.05;;;10.98;;
57605;SDS011;43430;48.204;11.556;2023-03-01T14:39:45;21.13;;;10.73;;
57605;SDS011;43430;48.204;11.556;2023-03-01T14:42:14;24.55;;;12.02;;
57605;SDS011;43430;48.204;11.556;2023-03-01T14:51:41;23.83;;;12.05;;
57605;SDS011;43430;48.204;11.556;2023-03-01T14:57:45;22.80;;;11.05;;
57605;SDS011;43430;48.204;11.556;2023-03-01T15:00:53;22.33;;;11.57;;
57605;SDS011;43430;48.204;11.556;2023-03-01T15:07:02;22.08;;;11.18;;
57605;SDS011;43430;48.204;11.556;2023-03-01T15:09:57;20.20;;;11.05;;
57605;SDS011;43430;48.204;11.556;2023-03-01T15:26:45;20.95;;;10.98;;
57605;SDS011;43430;48.204;11.556;2023-03-01T15:29:19;28.50;;;11.60;;
57605;SDS011;43430;48.204;11.556;2023-03-01T15:32:00;20.23;;;9.93;;
57605;SDS011;43430;48.204;11.556;2023-03-01T15:34:42;22.90;;;10.90;;
57605;SDS011;43430;48.204;11.556;2023-03-01T15:37:36;19.38;;;10.00;;
57605;SDS011;43430;48.204;11.556;2023-03-01T15:43:14;18.77;;;9.95;;
57605;SDS011;43430;48.204;11.556;2023-03-01T15:46:05;19.42;;;8.55;;
57605;SDS011;43430;48.204;11.556;2023-03-01T15:48:50;22.48;;;10.02;;
57605;SDS011;43430;48.204;11.556;2023-03-01T15:51:22;21.13;;;10.75;;
57605;SDS011;43430;48.204;11.556;2023-03-01T15:54:06;21.48;;;9.20;;
57605;SDS011;43430;48.204;11.556;2023-03-01T15:56:45;20.50;;;9.50;;
57605;SDS011;43430;48.204;11.556;2023-03-01T15:59:17;19.48;;;9.65;;
57605;SDS011;43430;48.204;11.556;2023-03-01T16:01:52;18.58;;;9.40;;
57605;SDS011;43430;48.204;11.556;2023-03-01T16:04:41;19.42;;;9.27;;
57605;SDS011;43430;48.204;11.556;2023-03-01T16:07:36;19.95;;;9.65;;
57605;SDS011;43430;48.204;11.556;2023-03-01T16:15:33;18.38;;;8.90;;
57605;SDS011;43430;48.204;11.556;2023-03-01T16:18:14;21.50;;;9.65;;
57605;SDS011;43430;48.204;11.556;2023-03-01T16:27:45;17.48;;;8.35;;
57605;SDS011;43430;48.204;11.556;2023-03-01T16:30:19;18.33;;;8.32;;
57605;SDS011;43430;48.204;11.556;2023-03-01T16:33:02;16.45;;;8.07;;
57605;SDS011;43430;48.204;11.556;2023-03-01T16:35:38;20.70;;;8.15;;
57605;SDS011;43430;48.204;11.556;2023-03-01T16:43:27;20.40;;;8.40;;
57605;SDS011;43430;48.204;11.556;2023-03-01T16:46:05;21.02;;;9.30;;
57605;SDS011;43430;48.204;11.556;2023-03-01T16:48:57;16.65;;;8.00;;
57605;SDS011;43430;48.204;11.556;2023-03-01T16:51:31;18.90;;;8.50;;
57605;SDS011;43430;48.204;11.556;2023-03-01T16:54:09;19.92;;;8.48;;
57605;SDS011;43430;48.204;11.556;2023-03-01T16:56:38;17.52;;;8.35;;
57605;SDS011;43430;48.204;11.556;2023-03-01T17:02:02;22.15;;;8.75;;
57605;SDS011;43430;48.204;11.556;2023-03-01T17:04:28;17.27;;;8.80;;
57605;SDS011;43430;48.204;11.556;2023-03-01T17:06:57;19.60;;;8.60;;
57605;SDS011;43430;48.204;11.556;2023-03-01T17:09:26;29.58;;;8.65;;
57605;SDS011;43430;48.204;11.556;2023-03-01T17:11:51;18.23;;;9.05;;
57605;SDS011;43430;48.204;11.556;2023-03-01T17:14:17;16.30;;;7.88;;
57605;SDS011;43430;48.204;11.556;2023-03-01T17:16:46;16.38;;;7.78;;
57605;SDS011;43430;48.204;11.556;2023-03-01T17:19:11;17.70;;;8.32;;
57605;SDS011;43430;48.204;11.556;2023-03-01T17:21:42;19.02;;;9.35;;
57605;SDS011;43430;48.204;11.556;2023-03-01T17:24:08;20.60;;;9.40;;
57605;SDS011;43430;48.204;11.556;2023-03-01T17:26:37;20.67;;;8.25;;
57605;SDS011;43430;48.204;11.556;2023-03-01T17:29:03;19.58;;;9.63;;
57605;SDS011;43430;48.204;11.556;2023-03-01T17:31:29;19.92;;;9.07;;
57605;SDS011;43430;48.204;11.556;2023-03-01T17:33:55;21.33;;;9.95;;
57605;SDS011;43430;48.204;11.556;2023-03-01T17:36:20;22.38;;;10.70;;
57605;SDS011;43430;48.204;11.556;2023-03-01T17:38:46;32.13;;;14.50;;
57605;SDS011;43430;48.204;11.556;2023-03-01T17:41:12;25.10;;;12.20;;
57605;SDS011;43430;48.204;11.556;2023-03-01T17:43:38;21.35;;;9.93;;
57605;SDS011;43430;48.204;11.556;2023-03-01T17:46:04;21.55;;;9.70;;
57605;SDS011;43430;48.204;11.556;2023-03-01T17:48:29;22.80;;;11.20;;
57605;SDS011;43430;48.204;11.556;2023-03-01T17:50:57;22.40;;;11.73;;
57605;SDS011;43430;48.204;11.556;2023-03-01T17:53:22;28.20;;;13.52;;
57605;SDS011;43430;48.204;11.556;2023-03-01T17:56:08;23.00;;;11.68;;
57605;SDS011;43430;48.204;11.556;2023-03-01T17:58:34;14.25;;;8.38;;
57605;SDS011;43430;48.204;11.556;2023-03-01T18:01:16;17.00;;;7.60;;
57605;SDS011;43430;48.204;11.556;2023-03-01T18:03:49;17.08;;;7.88;;
57605;SDS011;43430;48.204;11.556;2023-03-01T18:06:18;20.50;;;8.75;;
57605;SDS011;43430;48.204;11.556;2023-03-01T18:12:17;17.70;;;7.95;;
57605;SDS011;43430;48.204;11.556;2023-03-01T18:14:57;18.00;;;8.63;;
57605;SDS011;43430;48.204;11.556;2023-03-01T18:17:52;25.15;;;10.02;;
57605;SDS011;43430;48.204;11.556;2023-03-01T18:20:17;20.88;;;8.27;;
57605;SDS011;43430;48.204;11.556;2023-03-01T18:22:43;21.15;;;8.68;;
57605;SDS011;43430;48.204;11.556;2023-03-01T18:25:09;20.85;;;9.25;;
57605;SDS011;43430;48.204;11.556;2023-03-01T18:27:35;20.48;;;10.10;;
57605;SDS011;43430;48.204;11.556;2023-03-01T18:30:03;21.52;;;9.63;;
57605;SDS011;43430;48.204;11.556;2023-03-01T18:32:30;22.48;;;10.48;;
57605;SDS011;43430;48.204;11.556;2023-03-01T18:34:56;27.05;;;11.13;;
57605;SDS011;43430;48.204;11.556;2023-03-01T18:37:22;21.92;;;9.80;;
57605;SDS011;43430;48.204;11.556;2023-03-01T18:39:51;24.55;;;11.02;;
57605;SDS011;43430;48.204;11.556;2023-03-01T18:42:17;24.73;;;10.63;;
57605;SDS011;43430;48.204;11.556;2023-03-01T18:44:46;25.23;;;12.25;;
57605;SDS011;43430;48.204;11.556;2023-03-01T18:47:12;33.03;;;13.68;;
57605;SDS011;43430;48.204;11.556;2023-03-01T18:49:37;37.63;;;15.13;;
57605;SDS011;43430;48.204;11.556;2023-03-01T18:52:03;30.58;;;14.52;;
57605;SDS011;43430;48.204;11.556;2023-03-01T18:54:28;32.30;;;14.18;;
57605;SDS011;43430;48.204;11.556;2023-03-01T18:56:54;28.35;;;12.57;;
57605;SDS011;43430;48.204;11.556;2023-03-01T18:59:19;34.13;;;15.00;;
57605;SDS011;43430;48.204;11.556;2023-03-01T19:01:45;31.58;;;13.90;;
57605;SDS011;43430;48.204;11.556;2023-03-01T19:04:10;33.60;;;15.40;;
57605;SDS011;43430;48.204;11.556;2023-03-01T19:06:36;25.00;;;12.10;;
57605;SDS011;43430;48.204;11.556;2023-03-01T19:09:05;36.33;;;15.88;;
57605;SDS011;43430;48.204;11.556;2023-03-01T19:11:33;29.63;;;14.27;;
57605;SDS011;43430;48.204;11.556;2023-03-01T19:14:05;28.55;;;12.07;;
57605;SDS011;43430;48.204;11.556;2023-03-01T19:16:36;23.23;;;10.20;;
57605;SDS011;43430;48.204;11.556;2023-03-01T19:19:03;27.38;;;10.85;;
57605;SDS011;43430;48.204;11.556;2023-03-01T19:21:30;26.58;;;11.45;;
57605;SDS011;43430;48.204;11.556;2023-03-01T19:23:57;24.98;;;11.82;;
57605;SDS011;43430;48.204;11.556;2023-03-01T19:26:23;33.42;;;15.00;;
57605;SDS011;43430;48.204;11.556;2023-03-01T19:29:12;27.80;;;12.45;;